Time;durP1;ratioP1;P1;durP2;ratioP2;P2;SDS_P1;SDS_P2;PMS_P1;PMS_P2;Temp;Humidity;BMP_temperature;BMP_pressure;BME280_temperature;BME280_humidity;BME280_pressure;Samples;Min_cycle;Max_cycle;Signal;HPM_P1;HPM_P2
2023/03/23 00:01:26;;;;;;;5.45;3.28;;;;;;;10.57;100.00;100152.56;4951773;28;20624;-73
2023/03/23 00:03:56;;;;;;;8.07;3.58;;;;;;;10.55;100.00;100160.84;4950721;29;20047;-73
2023/03/23 00:06:23;;;;;;;4.13;3.05;;;;;;;10.55;100.00;100165.44;4949053;28;20136;-73
2023/03/23 00:08:56;;;;;;;5.97;3.38;;;;;;;10.57;100.00;100158.84;4950534;29;20079;-73
2023/03/23 00:11:23;;;;;;;6.53;3.30;;;;;;;10.59;100.00;100146.00;4949596;29;20487;-74
2023/03/23 00:13:51;;;;;;;12.05;3.67;;;;;;;10.61;100.00;100140.44;4951556;29;20121;-73
2023/03/23 00:16:18;;;;;;;5.70;3.10;;;;;;;10.61;100.00;100143.16;4956322;28;20617;-73
2023/03/23 00:18:52;;;;;;;3.75;3.15;;;;;;;10.60;100.00;100166.78;4934493;29;20154;-73
2023/03/23 00:21:18;;;;;;;5.47;2.85;;;;;;;10.61;100.00;100167.63;4950046;28;20035;-73
2023/03/23 00:23:44;;;;;;;5.72;3.50;;;;;;;10.61;100.00;100154.88;4951823;29;20042;-73
2023/03/23 00:26:11;;;;;;;5.03;3.10;;;;;;;10.64;100.00;100148.34;4949289;28;20039;-73
2023/03/23 00:28:38;;;;;;;6.38;3.10;;;;;;;10.61;100.00;100154.88;4949666;29;20137;-72
2023/03/23 00:31:06;;;;;;;3.67;3.10;;;;;;;10.62;100.00;100158.47;4951524;28;20043;-73
2023/03/23 00:33:40;;;;;;;4.15;3.10;;;;;;;10.62;100.00;100162.06;4969683;28;20039;-73
2023/03/23 00:36:08;;;;;;;9.40;3.53;;;;;;;10.61;100.00;100164.91;4947249;28;20046;-73
2023/03/23 00:38:35;;;;;;;5.72;3.42;;;;;;;10.63;100.00;100171.06;4950045;28;20043;-73
2023/03/23 00:41:04;;;;;;;5.97;3.85;;;;;;;10.61;100.00;100168.50;4950844;29;20098;-73
2023/03/23 00:43:30;;;;;;;3.60;3.15;;;;;;;10.65;100.00;100158.22;4951344;28;20030;-73
2023/03/23 00:46:00;;;;;;;5.18;3.33;;;;;;;10.70;100.00;100161.41;4932167;28;20117;-73
2023/03/23 00:48:28;;;;;;;5.82;3.50;;;;;;;10.75;100.00;100158.31;4949633;28;20043;-74
2023/03/23 00:50:53;;;;;;;4.95;3.42;;;;;;;10.74;100.00;100138.41;4932974;29;20502;-74
2023/03/23 00:53:20;;;;;;;5.32;3.50;;;;;;;10.70;100.00;100154.13;4948918;28;20451;-73
2023/03/23 00:55:47;;;;;;;6.40;4.07;;;;;;;10.70;100.00;100150.53;4950166;29;20031;-74
2023/03/23 00:58:14;;;;;;;8.25;4.10;;;;;;;10.70;100.00;100139.66;4948397;28;20082;-75
2023/03/23 01:00:40;;;;;;;6.63;3.60;;;;;;;10.68;100.00;100133.50;4949194;29;20507;-74
2023/03/23 01:03:07;;;;;;;5.18;3.50;;;;;;;10.61;100.00;100105.94;4949617;28;20149;-74
2023/03/23 01:05:36;;;;;;;9.10;4.35;;;;;;;10.60;100.00;100106.06;4950699;28;20045;-74
2023/03/23 01:08:03;;;;;;;6.82;4.00;;;;;;;10.56;100.00;100105.47;4948844;28;20045;-74
2023/03/23 01:10:32;;;;;;;6.68;3.78;;;;;;;10.59;100.00;100110.66;4933104;28;20043;-74
2023/03/23 01:13:00;;;;;;;7.55;4.50;;;;;;;10.58;100.00;100119.78;4950396;29;20031;-74
2023/03/23 01:15:27;;;;;;;6.88;3.75;;;;;;;10.58;100.00;100105.31;4950279;28;20031;-74
2023/03/23 01:17:52;;;;;;;6.38;3.88;;;;;;;10.59;100.00;100075.28;4948418;28;20039;-74
2023/03/23 01:20:18;;;;;;;4.88;3.65;;;;;;;10.58;100.00;100081.69;4932341;28;20042;-74
2023/03/23 01:22:43;;;;;;;10.27;4.43;;;;;;;10.57;100.00;100081.84;4932759;29;20395;-74
2023/03/23 01:25:11;;;;;;;5.95;3.47;;;;;;;10.55;100.00;100084.69;4947938;29;20039;-74
2023/03/23 01:27:36;;;;;;;5.53;3.95;;;;;;;10.54;100.00;100095.69;4932222;29;20035;-74
2023/03/23 01:30:04;;;;;;;6.32;3.85;;;;;;;10.57;100.00;100085.41;4933900;29;20046;-73
2023/03/23 01:32:29;;;;;;;4.88;3.55;;;;;;;10.60;100.00;100078.88;4949790;29;20504;-74
2023/03/23 01:34:55;;;;;;;7.47;4.53;;;;;;;10.62;100.00;100082.31;4948787;29;20094;-74
2023/03/23 01:37:25;;;;;;;5.47;3.75;;;;;;;10.61;100.00;100078.72;4948854;28;20035;-74
2023/03/23 01:39:56;;;;;;;6.20;3.83;;;;;;;10.65;100.00;100076.63;4947754;29;20122;-73
2023/03/23 01:42:32;;;;;;;6.38;3.85;;;;;;;10.66;100.00;100079.19;4947948;29;20432;-73
2023/03/23 01:45:19;;;;;;;6.30;3.60;;;;;;;10.71;100.00;100079.66;4954433;28;20031;-73
2023/03/23 01:47:49;;;;;;;6.60;3.42;;;;;;;10.70;100.00;100082.53;4951680;28;20461;-73
2023/03/23 01:50:15;;;;;;;5.03;3.45;;;;;;;10.75;100.00;100085.72;4947827;29;20467;-73
2023/03/23 01:52:40;;;;;;;5.38;3.90;;;;;;;10.74;100.00;100084.00;4948239;28;20059;-73
2023/03/23 01:55:06;;;;;;;5.88;3.85;;;;;;;10.75;100.00;100079.41;4947797;29;20510;-73
2023/03/23 01:57:34;;;;;;;5.47;3.55;;;;;;;10.75;100.00;100077.56;4937618;29;20095;-73
2023/03/23 02:00:14;;;;;;;5.72;3.60;;;;;;;10.78;100.00;100065.56;4949028;29;20038;-73
2023/03/23 02:02:42;;;;;;;8.65;4.00;;;;;;;10.80;100.00;100064.41;4948589;28;20046;-73
2023/03/23 02:05:13;;;;;;;7.85;4.20;;;;;;;10.82;100.00;100057.00;4947455;28;20419;-73
2023/03/23 02:07:42;;;;;;;7.55;4.22;;;;;;;10.84;100.00;100054.13;4947255;28;20039;-73
2023/03/23 02:10:08;;;;;;;5.32;3.85;;;;;;;10.82;100.00;100051.56;4931558;29;20039;-72
2023/03/23 02:12:34;;;;;;;6.93;3.90;;;;;;;10.83;100.00;100055.16;4932366;29;20069;-73
2023/03/23 02:15:02;;;;;;;4.93;3.55;;;;;;;10.85;100.00;100044.97;4933351;28;20122;-73
2023/03/23 02:17:51;;;;;;;5.65;3.58;;;;;;;10.85;100.00;100043.13;4937535;29;20042;-73
2023/03/23 02:20:53;;;;;;;9.77;4.60;;;;;;;10.85;100.00;100039.53;4947513;28;20047;-73
2023/03/23 02:24:04;;;;;;;8.85;3.60;;;;;;;10.87;100.00;100043.00;4947915;29;20046;-73
2023/03/23 02:27:00;;;;;;;6.93;3.70;;;;;;;10.90;99.93;100045.44;4931527;29;20046;-73
2023/03/23 02:29:46;;;;;;;5.55;3.50;;;;;;;10.89;100.00;100044.56;5053776;28;20788;-71
2023/03/23 02:32:21;;;;;;;7.18;3.78;;;;;;;10.91;99.83;100053.50;5042337;28;20469;-71
2023/03/23 02:35:24;;;;;;;7.78;3.72;;;;;;;10.94;100.00;100046.91;5042385;28;20041;-71
2023/03/23 02:37:56;;;;;;;6.10;3.83;;;;;;;10.95;99.28;100032.28;5042573;28;20042;-74
2023/03/23 02:40:28;;;;;;;6.18;3.90;;;;;;;10.95;99.59;100030.44;5045060;28;20040;-74
2023/03/23 02:42:57;;;;;;;4.38;3.28;;;;;;;10.95;99.53;100033.16;5045261;28;20607;-73
2023/03/23 02:45:25;;;;;;;6.78;3.67;;;;;;;10.96;99.39;100031.31;5030316;28;20086;-73
2023/03/23 02:47:53;;;;;;;6.03;3.70;;;;;;;10.99;98.04;100021.00;5042593;28;20183;-73
2023/03/23 02:50:23;;;;;;;8.85;3.63;;;;;;;11.03;98.36;100027.03;5042354;28;20056;-73
2023/03/23 02:52:50;;;;;;;6.03;3.60;;;;;;;11.08;98.34;100042.97;5043581;28;20386;-73
2023/03/23 02:55:17;;;;;;;4.97;3.47;;;;;;;11.08;98.21;100035.66;5046419;28;20025;-73
2023/03/23 02:57:45;;;;;;;6.18;4.28;;;;;;;11.13;97.30;100029.81;5044995;28;20095;-73
2023/03/23 03:00:15;;;;;;;7.53;4.30;;;;;;;11.17;97.81;100031.28;5041786;28;20021;-73
2023/03/23 03:02:52;;;;;;;5.18;3.85;;;;;;;11.17;97.86;100031.28;5043039;28;20116;-73
2023/03/23 03:05:34;;;;;;;4.22;3.35;;;;;;;11.18;97.73;100035.72;5041477;28;20038;-74
2023/03/23 03:08:27;;;;;;;6.13;3.42;;;;;;;11.18;97.46;100019.38;5034778;28;20040;-73
2023/03/23 03:11:06;;;;;;;3.80;3.33;;;;;;;11.20;97.41;100044.63;5040803;28;20049;-73
2023/03/23 03:13:47;;;;;;;5.25;3.38;;;;;;;11.21;97.58;100049.06;5055675;28;20040;-73
2023/03/23 03:16:27;;;;;;;6.00;3.65;;;;;;;11.23;96.60;100042.47;5031480;28;20439;-73
2023/03/23 03:19:00;;;;;;;5.43;4.18;;;;;;;11.30;96.64;100039.25;5041854;28;20033;-73
2023/03/23 03:21:30;;;;;;;4.78;3.70;;;;;;;11.31;96.43;100036.38;5045001;28;20496;-73
2023/03/23 03:24:00;;;;;;;4.38;3.60;;;;;;;11.29;95.84;100043.81;5041479;28;20120;-73
2023/03/23 03:26:28;;;;;;;6.30;3.83;;;;;;;11.29;96.56;100048.41;5056628;28;20068;-73
2023/03/23 03:28:59;;;;;;;8.52;4.22;;;;;;;11.28;96.30;100043.94;5025369;28;20049;-73
2023/03/23 03:31:33;;;;;;;4.93;3.70;;;;;;;11.28;95.99;100038.50;5041176;28;20124;-73
2023/03/23 03:34:01;;;;;;;4.40;3.80;;;;;;;11.26;96.18;100032.34;5025401;28;20099;-73
2023/03/23 03:36:34;;;;;;;5.22;3.53;;;;;;;11.28;96.05;100043.94;5047782;28;20029;-73
2023/03/23 03:39:06;;;;;;;7.07;3.63;;;;;;;11.28;95.48;100041.22;5057802;28;20033;-73
2023/03/23 03:41:31;;;;;;;5.22;3.83;;;;;;;11.28;95.20;100044.78;5027287;28;20029;-72
2023/03/23 03:43:57;;;;;;;6.00;3.80;;;;;;;11.29;94.99;100035.66;5037989;28;20418;-73
2023/03/23 03:46:26;;;;;;;5.88;3.53;;;;;;;11.30;95.10;100042.81;5028801;28;20264;-73
2023/03/23 03:48:53;;;;;;;6.20;3.45;;;;;;;11.31;94.49;100046.41;5040992;28;20033;-73
2023/03/23 03:51:19;;;;;;;6.53;3.60;;;;;;;11.30;94.40;100039.25;5038464;28;20025;-73
2023/03/23 03:53:51;;;;;;;5.22;3.05;;;;;;;11.31;93.66;100036.38;5012184;28;20095;-73
2023/03/23 03:56:17;;;;;;;6.55;3.40;;;;;;;11.30;93.60;100042.81;5025606;28;20072;-73
2023/03/23 03:58:50;;;;;;;4.95;2.90;;;;;;;11.29;93.21;100049.28;5027262;28;20029;-73
2023/03/23 04:01:23;;;;;;;6.35;2.97;;;;;;;11.30;93.25;100055.56;5027024;28;20556;-73
2023/03/23 04:03:50;;;;;;;4.13;3.38;;;;;;;11.32;92.86;100056.28;5027593;28;20140;-73
2023/03/23 04:06:27;;;;;;;6.05;2.75;;;;;;;11.30;92.35;100061.88;5027625;28;20558;-73
2023/03/23 04:08:58;;;;;;;5.13;2.85;;;;;;;11.29;92.54;100048.41;5033403;28;20397;-73
2023/03/23 04:11:25;;;;;;;5.65;2.90;;;;;;;11.30;91.80;100045.53;5042820;28;20060;-73
2023/03/23 04:13:51;;;;;;;5.55;2.33;;;;;;;11.32;91.68;100054.44;5043546;28;20692;-73
2023/03/23 04:16:26;;;;;;;6.55;2.17;;;;;;;11.32;91.38;100056.28;5024105;28;20412;-73
2023/03/23 04:18:52;;;;;;;3.92;2.70;;;;;;;11.31;91.54;100060.00;5030767;28;20397;-73
2023/03/23 04:21:17;;;;;;;5.20;2.17;;;;;;;11.30;91.15;100059.16;5043916;28;20055;-73
2023/03/23 04:23:46;;;;;;;7.78;2.78;;;;;;;11.30;91.18;100061.03;5047039;28;20059;-73
2023/03/23 04:26:13;;;;;;;4.55;2.75;;;;;;;11.30;91.22;100061.03;5039493;28;20029;-73
2023/03/23 04:28:43;;;;;;;5.57;2.30;;;;;;;11.29;91.01;100057.44;5026371;28;20148;-72
2023/03/23 04:31:44;;;;;;;6.65;2.63;;;;;;;11.30;90.99;100069.19;5028079;28;20044;-73
2023/03/23 04:34:32;;;;;;;10.70;2.35;;;;;;;11.29;90.39;100071.06;5046330;28;20044;-73
2023/03/23 04:36:58;;;;;;;8.15;2.40;;;;;;;11.29;90.65;100075.63;5043770;28;20040;-74
2023/03/23 04:39:28;;;;;;;9.32;2.33;;;;;;;11.30;90.62;100083.66;5045456;28;20610;-73
2023/03/23 04:41:54;;;;;;;6.30;2.88;;;;;;;11.32;89.55;100083.53;5008946;28;20464;-73
2023/03/23 04:44:24;;;;;;;5.85;2.50;;;;;;;11.32;90.38;100081.66;5031435;28;20364;-73
2023/03/23 04:47:04;;;;;;;7.78;2.65;;;;;;;11.31;89.75;100085.38;5041238;28;20029;-72
2023/03/23 04:49:35;;;;;;;6.97;2.42;;;;;;;11.31;89.66;100074.50;5011280;28;20042;-73
2023/03/23 04:52:11;;;;;;;4.55;2.13;;;;;;;11.30;89.80;100077.34;5020540;28;20029;-73
2023/03/23 04:54:52;;;;;;;7.90;2.22;;;;;;;11.26;89.79;100090.38;5026279;28;20037;-73
2023/03/23 04:57:18;;;;;;;6.78;1.63;;;;;;;11.26;89.78;100075.91;5024602;28;20492;-72
2023/03/23 04:59:55;;;;;;;8.25;1.90;;;;;;;11.28;89.63;100087.50;5032526;28;20460;-73
2023/03/23 05:02:33;;;;;;;7.18;1.83;;;;;;;11.23;90.05;100077.88;5043820;28;20116;-73
2023/03/23 05:04:59;;;;;;;5.50;1.85;;;;;;;11.24;90.14;100081.50;5043290;28;20033;-73
2023/03/23 05:07:27;;;;;;;6.72;1.70;;;;;;;11.22;89.77;100091.63;5041511;28;20025;-73
2023/03/23 05:09:54;;;;;;;3.40;1.80;;;;;;;11.23;90.67;100079.75;5036135;28;20259;-73
2023/03/23 05:12:22;;;;;;;5.88;1.95;;;;;;;11.21;90.76;100087.19;5025424;28;20500;-73
2023/03/23 05:14:53;;;;;;;5.70;1.77;;;;;;;11.19;90.52;100084.63;5034546;28;20621;-73
2023/03/23 05:17:23;;;;;;;5.45;1.50;;;;;;;11.17;90.95;100083.00;5032777;28;20025;-73
2023/03/23 05:19:51;;;;;;;5.68;2.17;;;;;;;11.19;90.11;100083.72;5026138;28;20025;-73
2023/03/23 05:22:32;;;;;;;8.33;1.90;;;;;;;11.15;90.25;100074.97;5038916;28;20040;-73
2023/03/23 05:25:02;;;;;;;6.40;1.75;;;;;;;11.16;90.28;100089.47;5026339;28;20519;-73
2023/03/23 05:27:32;;;;;;;5.55;1.63;;;;;;;11.14;90.90;100096.88;5024893;28;20378;-73
2023/03/23 05:30:01;;;;;;;6.95;2.13;;;;;;;11.13;90.47;100087.00;5033025;28;20033;-73
2023/03/23 05:32:29;;;;;;;6.03;1.88;;;;;;;11.13;90.34;100093.28;5043143;28;20566;-73
2023/03/23 05:35:00;;;;;;;9.45;2.97;;;;;;;11.13;90.45;100096.00;5042597;28;20029;-73
2023/03/23 05:37:33;;;;;;;4.45;1.80;;;;;;;11.15;90.00;100079.56;5036702;28;20501;-73
2023/03/23 05:40:07;;;;;;;7.53;1.83;;;;;;;11.14;90.24;100083.25;5024435;28;20033;-72
2023/03/23 05:42:40;;;;;;;6.60;1.67;;;;;;;11.12;90.47;100088.84;5024947;28;20116;-73
2023/03/23 05:45:14;;;;;;;6.55;2.00;;;;;;;11.12;90.93;100079.81;5025205;28;20033;-73
2023/03/23 05:47:41;;;;;;;7.18;1.95;;;;;;;11.06;91.17;100096.69;5025502;28;20063;-73
2023/03/23 05:50:12;;;;;;;9.15;1.95;;;;;;;11.05;90.97;100097.66;5024986;28;20497;-73
2023/03/23 05:52:39;;;;;;;7.18;1.92;;;;;;;11.03;91.62;100089.66;5038510;28;20087;-74
2023/03/23 05:55:08;;;;;;;8.05;1.98;;;;;;;11.02;91.39;100098.81;5024632;28;20036;-73
2023/03/23 05:57:36;;;;;;;6.78;1.88;;;;;;;11.00;92.01;100092.63;5024947;28;20041;-73
2023/03/23 06:00:19;;;;;;;7.78;1.80;;;;;;;10.99;92.28;100091.75;5035637;28;20120;-74
2023/03/23 06:02:48;;;;;;;9.13;1.92;;;;;;;10.93;92.08;100088.72;5024441;28;20275;-73
2023/03/23 06:05:19;;;;;;;7.15;2.40;;;;;;;10.96;92.06;100094.78;5012442;28;20044;-73
2023/03/23 06:07:49;;;;;;;5.57;1.85;;;;;;;10.93;91.90;100080.56;5036144;28;20706;-73
2023/03/23 06:10:16;;;;;;;4.70;1.88;;;;;;;10.95;91.95;100090.28;5041613;28;20041;-72
2023/03/23 06:12:45;;;;;;;7.03;2.00;;;;;;;10.96;92.29;100096.63;5008747;28;20037;-73
2023/03/23 06:15:19;;;;;;;5.97;1.95;;;;;;;10.97;91.95;100101.06;5013180;28;20032;-73
2023/03/23 06:18:05;;;;;;;8.02;2.15;;;;;;;10.98;91.61;100114.53;5027967;28;20441;-73
2023/03/23 06:20:38;;;;;;;6.68;2.63;;;;;;;11.01;92.14;100123.47;5024581;28;20044;-73
2023/03/23 06:23:18;;;;;;;10.32;2.35;;;;;;;11.04;91.14;100126.75;5010520;28;20034;-73
2023/03/23 06:25:43;;;;;;;9.48;2.00;;;;;;;11.07;90.56;100131.09;5007758;28;20037;-72
2023/03/23 06:28:10;;;;;;;7.60;1.90;;;;;;;11.11;90.67;100138.00;5024784;28;20426;-73
2023/03/23 06:30:40;;;;;;;6.95;1.77;;;;;;;11.14;89.92;100141.28;5041263;28;20558;-73
2023/03/23 06:33:09;;;;;;;7.05;2.65;;;;;;;11.14;90.20;100146.72;5025533;28;20041;-73
2023/03/23 06:35:55;;;;;;;9.63;3.25;;;;;;;11.15;90.57;100153.94;5014800;28;20038;-73
2023/03/23 06:38:42;;;;;;;6.38;2.17;;;;;;;11.18;89.60;100150.06;5024498;28;20040;-73
2023/03/23 06:41:08;;;;;;;4.30;1.70;;;;;;;11.17;90.10;100148.34;5007840;28;20493;-73
2023/03/23 06:43:35;;;;;;;7.65;1.95;;;;;;;11.20;89.86;100157.13;5030723;28;20046;-73
2023/03/23 06:46:12;;;;;;;7.22;2.30;;;;;;;11.19;90.16;100170.84;5025089;28;20044;-73
2023/03/23 06:48:40;;;;;;;6.03;1.73;;;;;;;11.16;91.31;100158.38;5025074;28;20045;-73
2023/03/23 06:51:08;;;;;;;7.35;1.80;;;;;;;11.11;92.57;100167.94;5028006;28;20395;-73
2023/03/23 06:53:36;;;;;;;5.55;2.00;;;;;;;11.07;91.97;100171.91;5028643;28;20615;-73
2023/03/23 06:56:06;;;;;;;9.55;1.88;;;;;;;11.04;91.70;100169.44;5027646;28;20150;-73
2023/03/23 06:58:34;;;;;;;8.18;1.38;;;;;;;11.06;91.50;100184.66;5025479;28;20132;-72
2023/03/23 07:01:00;;;;;;;8.13;2.08;;;;;;;11.06;91.64;100186.53;5025314;28;20141;-73
2023/03/23 07:03:34;;;;;;;7.45;1.88;;;;;;;11.05;91.25;100185.66;5024928;28;20030;-73
2023/03/23 07:06:00;;;;;;;7.05;1.90;;;;;;;11.03;91.57;100182.19;5027002;28;20032;-73
2023/03/23 07:08:28;;;;;;;7.78;1.65;;;;;;;11.01;91.98;100191.50;5044718;28;20132;-73
2023/03/23 07:10:56;;;;;;;5.65;1.38;;;;;;;11.00;91.51;100185.16;5027405;28;20116;-74
2023/03/23 07:13:26;;;;;;;8.27;2.30;;;;;;;10.95;93.15;100198.31;5034257;28;20029;-74
2023/03/23 07:15:55;;;;;;;11.43;2.05;;;;;;;10.91;94.50;100210.44;5039683;28;20488;-76
2023/03/23 07:18:21;;;;;;;8.75;2.30;;;;;;;10.81;96.26;100204.91;5028555;28;20076;-75
2023/03/23 07:20:49;;;;;;;6.13;1.88;;;;;;;10.71;97.13;100201.22;5028026;28;20064;-75
2023/03/23 07:23:16;;;;;;;10.45;2.17;;;;;;;10.63;98.09;100210.03;5028220;28;20495;-76
2023/03/23 07:26:01;;;;;;;4.93;2.00;;;;;;;10.54;99.17;100215.34;5028104;28;20067;-76
2023/03/23 07:28:33;;;;;;;7.90;2.30;;;;;;;10.51;100.00;100212.91;5029166;28;20041;-77
2023/03/23 07:31:08;;;;;;;4.88;1.80;;;;;;;10.41;98.34;100210.09;5027440;28;20037;-75
2023/03/23 07:33:35;;;;;;;7.05;1.60;;;;;;;10.36;100.00;100212.31;5028529;28;20528;-75
2023/03/23 07:36:02;;;;;;;8.20;1.88;;;;;;;10.33;99.50;100237.03;5041807;28;20485;-76
2023/03/23 07:38:29;;;;;;;7.63;2.38;;;;;;;10.23;98.18;100242.31;5027884;28;20021;-77
2023/03/23 07:40:57;;;;;;;6.53;1.40;;;;;;;10.12;96.97;100240.47;5041529;28;20454;-76
2023/03/23 07:43:23;;;;;;;2.47;1.00;;;;;;;9.95;94.64;100228.22;5025148;28;20114;-76
2023/03/23 07:46:07;;;;;;;2.50;0.82;;;;;;;9.81;93.46;100224.88;5028060;28;20045;-74
2023/03/23 07:49:05;;;;;;;1.00;0.77;;;;;;;9.71;94.99;100230.16;5028555;28;20052;-75
2023/03/23 07:51:38;;;;;;;0.98;0.80;;;;;;;9.66;95.36;100233.25;5026822;28;20132;-75
2023/03/23 07:54:07;;;;;;;2.28;1.02;;;;;;;9.61;96.33;100234.59;5027840;28;20488;-75
2023/03/23 07:56:50;;;;;;;2.05;0.95;;;;;;;9.59;96.48;100250.13;5026791;28;20033;-75
2023/03/23 07:59:25;;;;;;;2.78;1.00;;;;;;;9.54;96.63;100244.19;5012570;28;20116;-74
2023/03/23 08:01:51;;;;;;;1.40;1.00;;;;;;;9.53;97.56;100248.78;5027346;28;20365;-74
2023/03/23 08:04:37;;;;;;;2.88;0.98;;;;;;;9.54;97.49;100250.50;5028836;28;20056;-74
2023/03/23 08:07:18;;;;;;;3.72;1.00;;;;;;;9.52;98.29;100255.19;5028014;28;20385;-74
2023/03/23 08:09:51;;;;;;;2.58;1.25;;;;;;;9.50;99.14;100248.13;5028514;28;20033;-75
2023/03/23 08:12:31;;;;;;;2.00;1.20;;;;;;;9.49;99.60;100263.56;5028761;28;20045;-75
2023/03/23 08:15:21;;;;;;;3.65;1.38;;;;;;;9.54;100.00;100263.22;5013827;28;20037;-74
2023/03/23 08:17:51;;;;;;;6.57;1.30;;;;;;;9.62;100.00;100266.19;5028705;28;20105;-74
2023/03/23 08:20:42;;;;;;;3.88;1.45;;;;;;;9.74;100.00;100264.34;5028310;28;20103;-74
2023/03/23 08:23:46;;;;;;;1.17;1.02;;;;;;;9.88;100.00;100269.56;5022851;28;20098;-74
2023/03/23 08:26:15;;;;;;;1.60;1.20;;;;;;;9.93;100.00;100270.97;5027844;28;20044;-73
2023/03/23 08:29:03;;;;;;;3.47;1.30;;;;;;;9.95;99.72;100274.41;5028210;28;20041;-74
2023/03/23 08:31:51;;;;;;;4.70;1.40;;;;;;;9.93;99.56;100276.41;5046891;28;20052;-74
2023/03/23 08:34:30;;;;;;;3.40;1.25;;;;;;;9.93;99.68;100262.81;5049261;28;20041;-74
2023/03/23 08:37:22;;;;;;;;;;;;;;;9.98;98.97;100262.44;5017517;28;20087;-74
2023/03/23 08:40:08;;;;;;;3.65;1.40;;;;;;;10.02;100.00;100263.91;5026575;28;19937;-73
2023/03/23 08:42:42;;;;;;;4.00;1.23;;;;;;;10.07;98.75;100260.81;5027956;28;20076;-73
2023/03/23 08:45:36;;;;;;;3.13;1.27;;;;;;;10.14;98.89;100267.50;5035089;28;20126;-73
2023/03/23 08:48:10;;;;;;;2.40;1.10;;;;;;;10.19;98.61;100278.88;5027638;28;20307;-73
2023/03/23 08:51:02;;;;;;;5.07;1.00;;;;;;;10.17;97.17;100272.72;5029731;28;20035;-74
2023/03/23 08:53:42;;;;;;;2.65;1.30;;;;;;;10.22;98.06;100282.22;5029885;28;20049;-74
2023/03/23 08:56:26;;;;;;;2.08;1.33;;;;;;;10.26;98.04;100282.00;5025919;28;20090;-73
2023/03/23 08:59:23;;;;;;;2.70;0.90;;;;;;;10.26;97.61;100280.16;5026275;28;20255;-74
2023/03/23 09:02:13;;;;;;;5.65;1.23;;;;;;;10.33;97.82;100275.09;5027406;28;20056;-74
2023/03/23 09:04:50;;;;;;;3.77;0.93;;;;;;;10.45;97.79;100291.28;5025830;28;20026;-74
2023/03/23 09:07:24;;;;;;;3.42;1.10;;;;;;;10.43;96.43;100278.78;5029529;28;20053;-74
2023/03/23 09:09:50;;;;;;;4.60;1.20;;;;;;;10.39;96.94;100267.28;5027491;28;20049;-74
2023/03/23 09:12:15;;;;;;;2.85;1.05;;;;;;;10.40;96.99;100266.31;5024873;28;20025;-74
2023/03/23 09:14:41;;;;;;;3.47;1.27;;;;;;;10.44;96.72;100253.31;5025365;28;20080;-74
2023/03/23 09:17:07;;;;;;;2.03;0.90;;;;;;;10.54;98.13;100256.16;5044050;28;20119;-74
2023/03/23 09:19:34;;;;;;;3.40;1.30;;;;;;;10.73;97.87;100272.72;5032386;28;20390;-74
2023/03/23 09:22:00;;;;;;;6.60;1.75;;;;;;;10.80;97.38;100283.94;5027736;28;20400;-74
2023/03/23 09:24:26;;;;;;;5.07;1.30;;;;;;;10.79;97.04;100276.78;5027247;28;20087;-74
2023/03/23 09:26:52;;;;;;;3.00;1.10;;;;;;;10.86;96.90;100284.28;5024741;28;20048;-74
2023/03/23 09:29:18;;;;;;;7.05;1.25;;;;;;;10.84;96.00;100288.16;5027025;28;20504;-74
2023/03/23 09:31:46;;;;;;;7.93;1.30;;;;;;;10.89;96.62;100284.06;5026892;28;20103;-73
2023/03/23 09:34:12;;;;;;;9.15;1.73;;;;;;;10.91;95.57;100276.66;5027325;28;20103;-74
2023/03/23 09:36:38;;;;;;;4.15;1.60;;;;;;;10.93;96.01;100271.06;5027244;28;20037;-73
2023/03/23 09:39:09;;;;;;;4.97;1.48;;;;;;;11.06;96.77;100281.81;5026961;28;20819;-73
2023/03/23 09:41:56;;;;;;;2.13;1.30;;;;;;;11.14;95.28;100287.44;5026195;28;20053;-73
2023/03/23 09:44:51;;;;;;;5.22;2.03;;;;;;;11.15;95.16;100295.50;5025676;28;20041;-74
2023/03/23 09:47:28;;;;;;;3.80;1.30;;;;;;;11.28;95.47;100289.88;5025124;28;20116;-73
2023/03/23 09:49:59;;;;;;;4.70;1.45;;;;;;;11.52;96.11;100288.78;5025784;28;20284;-73
2023/03/23 09:52:37;;;;;;;5.40;1.40;;;;;;;11.78;96.88;100292.00;5026605;28;20103;-73
2023/03/23 09:55:03;;;;;;;8.68;1.73;;;;;;;11.94;92.36;100284.28;5027084;28;20049;-73
2023/03/23 09:57:42;;;;;;;3.20;1.50;;;;;;;12.09;92.33;100288.38;5009109;28;20013;-73
2023/03/23 10:00:09;;;;;;;5.00;1.42;;;;;;;12.18;90.91;100279.38;5025342;28;20041;-73
2023/03/23 10:02:46;;;;;;;2.70;1.23;;;;;;;12.33;93.06;100292.66;5027005;28;20462;-73
2023/03/23 10:05:29;;;;;;;4.20;1.40;;;;;;;12.47;90.49;100295.88;5025333;28;20041;-73
2023/03/23 10:07:55;;;;;;;3.45;1.63;;;;;;;12.57;89.21;100287.75;5044423;28;20520;-73
2023/03/23 10:10:29;;;;;;;4.65;1.52;;;;;;;12.68;89.12;100297.69;5044383;28;20025;-73
2023/03/23 10:13:03;;;;;;;4.05;1.92;;;;;;;12.81;89.38;100302.91;5045111;28;20135;-73
2023/03/23 10:15:32;;;;;;;7.45;1.33;;;;;;;12.88;88.01;100307.69;5032683;28;20346;-73
2023/03/23 10:18:14;;;;;;;6.50;1.85;;;;;;;13.02;88.31;100306.41;5036278;28;20112;-73
2023/03/23 10:20:51;;;;;;;4.03;1.50;;;;;;;13.19;85.76;100294.78;5026184;28;20567;-73
2023/03/23 10:23:20;;;;;;;7.88;2.10;;;;;;;13.41;85.47;100306.50;5026507;28;20497;-73
2023/03/23 10:25:55;;;;;;;5.32;1.67;;;;;;;13.72;84.95;100313.56;5024557;28;20044;-73
2023/03/23 10:28:34;;;;;;;5.00;1.90;;;;;;;13.94;81.23;100309.66;5036712;28;20516;-74
2023/03/23 10:31:01;;;;;;;3.38;1.67;;;;;;;13.98;81.25;100326.63;5008779;28;20052;-73
2023/03/23 10:33:44;;;;;;;5.30;1.60;;;;;;;13.95;83.02;100330.53;5026787;28;20165;-73
2023/03/23 10:36:16;;;;;;;4.50;1.52;;;;;;;13.93;81.31;100326.19;5026095;28;20033;-72
2023/03/23 10:38:50;;;;;;;4.07;1.90;;;;;;;13.78;80.67;100329.38;5025024;28;20033;-72
2023/03/23 10:41:19;;;;;;;6.43;2.08;;;;;;;13.83;80.13;100323.47;5023966;28;20124;-73
2023/03/23 10:43:49;;;;;;;8.40;1.98;;;;;;;13.84;80.66;100322.47;5026186;28;20120;-74
2023/03/23 10:46:32;;;;;;;4.45;2.00;;;;;;;13.85;79.91;100318.75;5023764;28;20037;-73
2023/03/23 10:49:01;;;;;;;8.38;1.90;;;;;;;13.99;81.41;100318.28;5025108;28;20042;-73
2023/03/23 10:51:39;;;;;;;7.70;2.00;;;;;;;14.28;79.69;100309.16;5015221;28;20048;-72
2023/03/23 10:54:06;;;;;;;4.57;1.63;;;;;;;14.39;79.84;100314.44;5012350;28;20037;-72
2023/03/23 10:56:44;;;;;;;5.40;2.08;;;;;;;14.47;79.56;100311.84;5028677;28;20029;-73
2023/03/23 10:59:14;;;;;;;5.30;1.67;;;;;;;14.55;80.57;100313.88;5030149;28;20056;-73
2023/03/23 11:01:44;;;;;;;4.78;1.85;;;;;;;14.61;78.35;100313.25;5027993;28;20064;-73
2023/03/23 11:04:15;;;;;;;7.22;2.15;;;;;;;14.68;79.08;100303.41;5028238;28;20037;-73
2023/03/23 11:06:49;;;;;;;5.25;1.60;;;;;;;14.86;76.86;100306.22;5029312;28;20048;-73
2023/03/23 11:09:17;;;;;;;11.10;1.90;;;;;;;15.02;79.01;100308.31;5028439;28;20037;-73
2023/03/23 11:11:52;;;;;;;3.05;1.48;;;;;;;15.13;76.03;100315.44;5028553;28;20147;-73
2023/03/23 11:14:32;;;;;;;3.80;1.30;;;;;;;15.13;76.28;100302.59;5029679;28;20800;-73
2023/03/23 11:17:19;;;;;;;5.65;1.60;;;;;;;15.31;75.18;100292.53;5028269;28;20527;-73
2023/03/23 11:19:45;;;;;;;8.35;1.88;;;;;;;15.52;74.28;100303.19;5028518;28;20034;-73
2023/03/23 11:22:22;;;;;;;8.68;1.70;;;;;;;15.72;72.89;100303.94;5029967;28;20439;-73
2023/03/23 11:24:53;;;;;;;7.25;1.52;;;;;;;15.80;72.92;100323.19;5027807;28;20186;-73
2023/03/23 11:27:19;;;;;;;5.00;1.27;;;;;;;15.88;71.43;100310.56;5027500;28;20041;-73
2023/03/23 11:30:07;;;;;;;7.70;2.00;;;;;;;15.99;69.80;100311.19;5028267;28;20113;-73
2023/03/23 11:32:32;;;;;;;4.10;1.40;;;;;;;16.16;69.45;100325.03;5029027;28;20045;-74
2023/03/23 11:35:00;;;;;;;4.63;1.40;;;;;;;16.11;68.39;100320.03;5031103;28;20041;-73
2023/03/23 11:37:42;;;;;;;4.32;1.33;;;;;;;15.87;70.37;100328.91;5039478;28;20060;-73
2023/03/23 11:40:11;;;;;;;7.83;1.63;;;;;;;15.49;68.65;100317.22;5028581;28;20037;-73
2023/03/23 11:42:47;;;;;;;3.40;1.33;;;;;;;15.40;71.38;100325.53;5029073;28;20546;-73
2023/03/23 11:45:36;;;;;;;6.32;1.45;;;;;;;15.16;70.53;100316.00;5028853;28;20434;-73
2023/03/23 11:48:32;;;;;;;3.83;1.20;;;;;;;15.15;73.12;100324.38;5029900;28;20064;-73
2023/03/23 11:51:05;;;;;;;7.55;1.60;;;;;;;15.20;72.30;100324.75;5028552;28;20026;-73